createdAt,value
2023-01-10T00:00:37.306Z,52.68
2023-01-10T00:03:05.062Z,52.48
2023-01-10T00:05:32.275Z,52.53
2023-01-10T00:07:59.744Z,52.47
2023-01-10T00:10:26.839Z,52.76
2023-01-10T00:13:12.620Z,52.40
2023-01-10T00:15:39.707Z,52.42
2023-01-10T00:18:06.872Z,51.96
2023-01-10T00:20:34.213Z,52.50
2023-01-10T00:23:01.243Z,52.40
2023-01-10T00:25:28.450Z,51.57
2023-01-10T00:28:02.901Z,51.14
2023-01-10T00:30:30.798Z,51.51
2023-01-10T00:32:57.973Z,51.81
2023-01-10T00:35:26.330Z,51.66
2023-01-10T00:37:57.869Z,51.38
2023-01-10T00:40:25.336Z,51.36
2023-01-10T00:43:11.158Z,51.00
2023-01-10T00:45:38.260Z,51.40
2023-01-10T00:48:05.640Z,51.08
2023-01-10T00:50:32.796Z,50.96
2023-01-10T00:52:59.845Z,50.82
2023-01-10T00:55:27.019Z,50.62
2023-01-10T00:57:54.221Z,50.86
2023-01-10T01:00:21.299Z,50.67
2023-01-10T01:02:51.764Z,50.64
2023-01-10T01:05:19.040Z,49.94
2023-01-10T01:07:49.668Z,49.80
2023-01-10T01:10:29.138Z,50.38
2023-01-10T01:13:00.050Z,49.87
2023-01-10T01:15:27.393Z,49.85
2023-01-10T01:17:54.855Z,49.83
2023-01-10T01:20:22.045Z,50.31
2023-01-10T01:22:49.101Z,49.66
2023-01-10T01:25:16.193Z,49.76
2023-01-10T01:27:43.248Z,49.99
2023-01-10T01:30:10.622Z,50.04
2023-01-10T01:32:37.723Z,49.61
2023-01-10T01:35:09.225Z,50.14
2023-01-10T01:37:36.840Z,49.66
2023-01-10T01:40:04.206Z,50.10
2023-01-10T01:42:32.858Z,49.38
2023-01-10T01:45:09.173Z,49.65
2023-01-10T01:47:37.755Z,49.59
2023-01-10T01:50:05.237Z,49.63
2023-01-10T01:52:34.723Z,49.63
2023-01-10T01:55:02.085Z,49.43
2023-01-10T01:57:29.885Z,49.75
2023-01-10T01:59:56.989Z,49.72
2023-01-10T02:02:34.328Z,49.90
2023-01-10T02:05:05.721Z,49.99
2023-01-10T02:07:34.109Z,49.93
2023-01-10T02:10:01.948Z,49.78
2023-01-10T02:12:29.457Z,50.20
2023-01-10T02:14:56.523Z,49.52
2023-01-10T02:17:23.617Z,50.05
2023-01-10T02:19:58.767Z,50.04
2023-01-10T02:22:44.536Z,49.90
2023-01-10T02:25:29.824Z,49.70
2023-01-10T02:28:15.457Z,49.77
2023-01-10T02:31:01.218Z,50.32
2023-01-10T02:33:40.255Z,50.08
2023-01-10T02:36:10.926Z,50.58
2023-01-10T02:38:38.042Z,50.61
2023-01-10T02:41:20.642Z,50.87
2023-01-10T02:43:51.968Z,50.58
2023-01-10T02:46:25.127Z,51.17
2023-01-10T02:48:52.944Z,50.86
2023-01-10T02:51:21.052Z,50.29
2023-01-10T02:53:49.304Z,51.33
2023-01-10T02:56:31.687Z,51.21
2023-01-10T02:59:17.896Z,51.27
2023-01-10T03:02:01.107Z,51.64
2023-01-10T03:04:37.749Z,51.78
2023-01-10T03:07:09.301Z,50.93
2023-01-10T03:09:50.937Z,50.99
2023-01-10T03:12:38.386Z,51.42
2023-01-10T03:15:06.561Z,51.10
2023-01-10T03:17:33.850Z,50.82
2023-01-10T03:20:01.226Z,50.81
2023-01-10T03:22:29.352Z,51.19
2023-01-10T03:24:56.528Z,50.89
2023-01-10T03:27:30.312Z,51.33
2023-01-10T03:30:03.327Z,51.50
2023-01-10T03:32:30.825Z,51.30
2023-01-10T03:34:58.915Z,51.26
2023-01-10T03:37:37.092Z,51.00
2023-01-10T03:40:04.112Z,50.70
2023-01-10T03:43:12.264Z,51.64
2023-01-10T03:46:02.669Z,51.41
2023-01-10T03:48:31.668Z,51.61
2023-01-10T03:50:58.824Z,52.07
2023-01-10T03:53:25.866Z,51.96
2023-01-10T03:55:52.921Z,51.95
2023-01-10T03:58:21.955Z,52.47
2023-01-10T04:00:49.444Z,52.35
2023-01-10T04:03:17.522Z,51.95
2023-01-10T04:05:44.629Z,52.36
2023-01-10T04:08:11.669Z,52.54
2023-01-10T04:10:39.146Z,52.48
2023-01-10T04:13:06.305Z,52.15
2023-01-10T04:15:34.389Z,52.17
2023-01-10T04:18:01.572Z,51.99
2023-01-10T04:20:28.830Z,52.23
2023-01-10T04:22:56.100Z,51.77
2023-01-10T04:25:23.465Z,52.05
2023-01-10T04:27:50.821Z,51.83
2023-01-10T04:30:18.315Z,51.40
2023-01-10T04:32:45.960Z,51.23
2023-01-10T04:35:13.758Z,50.93
2023-01-10T04:37:40.893Z,50.85
2023-01-10T04:40:08.392Z,50.64
2023-01-10T04:42:37.481Z,50.36
2023-01-10T04:45:04.820Z,50.43
2023-01-10T04:47:31.933Z,50.48
2023-01-10T04:49:59.894Z,50.64
2023-01-10T04:52:28.292Z,50.42
2023-01-10T04:54:55.386Z,50.68
2023-01-10T04:57:22.473Z,50.66
2023-01-10T04:59:49.594Z,50.80
2023-01-10T05:02:16.843Z,50.27
2023-01-10T05:04:43.927Z,50.28
2023-01-10T05:07:11.175Z,50.31
2023-01-10T05:09:38.331Z,50.20
2023-01-10T05:12:05.568Z,49.95
2023-01-10T05:14:32.948Z,50.04
2023-01-10T05:17:00.564Z,50.56
2023-01-10T05:19:27.628Z,50.42
2023-01-10T05:21:54.666Z,50.08
2023-01-10T05:24:22.462Z,50.27
2023-01-10T05:26:49.587Z,49.98
2023-01-10T05:29:16.712Z,49.92
2023-01-10T05:31:43.829Z,50.23
2023-01-10T05:34:14.005Z,50.46
2023-01-10T05:36:41.144Z,49.89
2023-01-10T05:39:08.281Z,49.89
2023-01-10T05:41:35.343Z,49.87
2023-01-10T05:44:02.420Z,50.19
2023-01-10T05:46:29.623Z,50.12
2023-01-10T05:48:56.724Z,49.78
2023-01-10T05:51:23.763Z,49.78
2023-01-10T05:53:50.809Z,49.27
2023-01-10T05:56:17.874Z,49.40
2023-01-10T05:58:47.255Z,49.47
2023-01-10T06:01:16.653Z,49.41
2023-01-10T06:03:43.765Z,49.08
2023-01-10T06:06:10.828Z,48.99
2023-01-10T06:08:38.015Z,49.34
2023-01-10T06:11:05.469Z,49.38
2023-01-10T06:13:32.927Z,48.76
2023-01-10T06:16:00.518Z,48.78
2023-01-10T06:18:27.692Z,48.78
2023-01-10T06:20:54.998Z,48.74
2023-01-10T06:23:37.159Z,48.40
2023-01-10T06:26:04.369Z,48.25
2023-01-10T06:28:31.452Z,47.87
2023-01-10T06:30:58.601Z,47.78
2023-01-10T06:33:28.605Z,47.46
2023-01-10T06:35:55.810Z,47.96
2023-01-10T06:38:22.932Z,47.95
2023-01-10T06:40:50.095Z,47.91
2023-01-10T06:43:17.260Z,48.59
2023-01-10T06:45:44.464Z,47.89
2023-01-10T06:48:11.775Z,47.74
2023-01-10T06:50:38.897Z,47.23
2023-01-10T06:53:06.375Z,46.80
2023-01-10T06:55:33.459Z,46.72
2023-01-10T06:58:03.653Z,46.98
2023-01-10T07:00:31.601Z,46.58
2023-01-10T07:02:58.909Z,46.21
2023-01-10T07:05:27.217Z,46.53
2023-01-10T07:07:54.528Z,45.95
2023-01-10T07:10:21.600Z,45.84
2023-01-10T13:46:22.885Z,45.72
2023-01-10T13:48:50.260Z,45.88
2023-01-10T13:51:21.038Z,46.22
2023-01-10T13:53:51.972Z,46.20
2023-01-10T13:56:38.784Z,46.28
2023-01-10T13:59:29.020Z,46.05
2023-01-10T14:02:16.054Z,46.18
2023-01-10T14:04:47.541Z,46.04
2023-01-10T14:07:18.580Z,45.79
2023-01-10T14:09:46.166Z,45.99
2023-01-10T14:12:22.417Z,45.74
2023-01-10T14:15:09.733Z,46.36
2023-01-10T14:17:37.212Z,46.06
2023-01-10T14:20:05.858Z,46.21
2023-01-10T14:22:33.970Z,45.93
2023-01-10T14:25:01.777Z,46.04
2023-01-10T14:27:42.865Z,45.98
2023-01-10T14:30:14.601Z,46.34
2023-01-10T14:32:43.814Z,46.56
2023-01-10T14:35:14.822Z,46.19
2023-01-10T14:37:46.387Z,46.11
2023-01-10T14:40:22.844Z,46.48
2023-01-10T14:42:50.257Z,46.30
2023-01-10T14:45:20.609Z,46.79
2023-01-10T14:47:49.650Z,46.45
2023-01-10T14:50:31.236Z,46.65
2023-01-10T14:52:58.813Z,46.73
2023-01-10T14:55:25.914Z,46.83
2023-01-10T14:57:56.920Z,46.74
2023-01-10T15:00:33.994Z,46.77
2023-01-10T15:03:03.291Z,46.96
2023-01-10T15:05:31.657Z,46.52
2023-01-10T15:08:20.818Z,46.85
2023-01-10T15:10:49.964Z,47.11
2023-01-10T15:13:18.337Z,46.64
2023-01-10T15:15:48.967Z,46.37
2023-01-10T15:18:27.444Z,46.36
2023-01-10T15:20:54.741Z,46.95
2023-01-10T15:23:21.850Z,47.08
2023-01-10T15:25:55.004Z,47.01
2023-01-10T15:28:22.068Z,47.25
2023-01-10T15:30:49.117Z,47.02
2023-01-10T15:33:17.296Z,47.02
2023-01-10T15:35:44.461Z,47.08
2023-01-10T15:38:15.301Z,47.05
2023-01-10T15:40:42.343Z,47.30
2023-01-10T15:43:23.606Z,47.23
2023-01-10T15:45:51.575Z,47.74
2023-01-10T15:48:33.522Z,47.06
2023-01-10T15:51:11.387Z,46.87
2023-01-10T15:53:51.595Z,46.83
2023-01-10T15:56:23.687Z,46.57
2023-01-10T15:58:50.758Z,46.55
2023-01-10T16:01:17.897Z,46.90
2023-01-10T16:03:45.823Z,47.00
2023-01-10T16:06:31.842Z,46.58
2023-01-10T16:09:00.189Z,46.83
2023-01-10T16:11:53.735Z,47.47
2023-01-10T16:14:21.171Z,47.13
2023-01-10T16:16:48.621Z,47.28
2023-01-10T16:19:15.688Z,46.95
2023-01-10T16:21:46.970Z,47.19
2023-01-10T16:24:20.976Z,47.24
2023-01-10T16:26:48.187Z,47.06
2023-01-10T16:29:15.561Z,46.60
2023-01-10T16:31:42.799Z,47.04
2023-01-10T16:34:09.957Z,47.29
2023-01-10T16:36:37.173Z,47.15
2023-01-10T16:39:05.805Z,47.22
2023-01-10T16:41:51.776Z,47.73
2023-01-10T16:44:19.398Z,47.54
2023-01-10T16:46:47.352Z,47.66
2023-01-10T16:49:15.785Z,48.17
2023-01-10T16:51:42.895Z,47.95
2023-01-10T16:54:13.521Z,48.12
2023-01-10T16:56:40.645Z,47.95
2023-01-10T16:59:07.934Z,47.80
2023-01-10T17:01:38.917Z,48.07
2023-01-10T17:04:06.729Z,47.90
2023-01-10T17:06:33.998Z,47.66
2023-01-10T17:09:01.143Z,48.24
2023-01-10T17:11:30.321Z,47.69
2023-01-10T17:13:57.449Z,48.02
2023-01-10T17:16:24.627Z,48.27
2023-01-10T17:18:51.719Z,47.91
2023-01-10T17:21:19.224Z,48.10
2023-01-10T17:23:46.550Z,48.08
2023-01-10T17:26:16.114Z,47.86
2023-01-10T17:28:45.830Z,48.17
2023-01-10T17:31:13.826Z,48.49
2023-01-10T17:33:40.870Z,48.34
2023-01-10T17:36:08.154Z,48.89
2023-01-10T17:38:37.051Z,48.35
2023-01-10T17:41:12.240Z,49.27
2023-01-10T17:43:39.644Z,49.07
2023-01-10T17:46:06.775Z,49.00
2023-01-10T17:48:34.824Z,49.31
2023-01-10T17:51:02.503Z,48.91
2023-01-10T17:53:29.693Z,49.10
2023-01-10T17:55:58.405Z,49.13
2023-01-10T17:58:28.036Z,49.15
2023-01-10T18:00:55.290Z,49.46
2023-01-10T18:03:22.632Z,49.38
2023-01-10T18:05:50.661Z,49.68
2023-01-10T18:08:18.065Z,49.73
2023-01-10T18:10:45.345Z,49.84
2023-01-10T18:13:12.934Z,50.09
2023-01-10T18:15:42.343Z,49.96
2023-01-10T18:18:09.762Z,50.72
2023-01-10T18:20:39.444Z,50.57
2023-01-10T18:23:21.910Z,50.74
2023-01-10T18:25:55.620Z,51.10
2023-01-10T18:28:39.634Z,51.40
2023-01-10T18:31:17.480Z,51.15
2023-01-10T18:33:45.783Z,51.14
2023-01-10T18:36:16.292Z,51.34
2023-01-10T18:38:43.500Z,51.95
2023-01-10T18:41:10.670Z,51.86
2023-01-10T18:43:37.815Z,52.39
2023-01-10T18:46:06.583Z,52.41
2023-01-10T18:48:33.698Z,53.15
2023-01-10T18:51:01.293Z,53.34
2023-01-10T18:53:28.459Z,53.76
2023-01-10T18:55:59.144Z,53.98
2023-01-10T18:58:27.152Z,53.43
2023-01-10T19:00:54.246Z,53.56
2023-01-10T19:03:21.334Z,54.01
2023-01-10T19:05:48.522Z,54.11
2023-01-10T19:08:15.762Z,54.56
2023-01-10T19:11:07.124Z,54.94
2023-01-10T19:13:30.907Z,56.10
2023-01-10T19:16:11.466Z,56.67
2023-01-10T19:18:38.575Z,57.17
2023-01-10T19:21:06.222Z,57.92
2023-01-10T19:23:34.813Z,57.98
2023-01-10T19:26:01.908Z,58.39
2023-01-10T19:28:29.892Z,58.84
2023-01-10T19:31:04.536Z,59.47
2023-01-10T19:33:34.264Z,59.34
2023-01-10T19:36:05.328Z,59.61
2023-01-10T19:38:32.726Z,59.73
2023-01-10T19:40:59.814Z,61.03
2023-01-10T19:43:26.832Z,61.63
2023-01-10T19:45:54.473Z,61.99
2023-01-10T19:48:23.191Z,62.48
2023-01-10T19:50:50.228Z,62.92
2023-01-10T19:53:27.049Z,63.24
2023-01-10T19:56:02.102Z,62.97
2023-01-10T19:58:29.521Z,63.40
2023-01-10T20:00:56.658Z,63.92
2023-01-10T20:03:23.813Z,63.28
2023-01-10T20:05:50.896Z,64.06
2023-01-10T20:08:18.035Z,64.53
2023-01-10T20:10:45.239Z,64.63
2023-01-10T20:13:12.360Z,65.13
2023-01-10T20:15:39.448Z,65.71
2023-01-10T20:18:06.871Z,65.98
2023-01-10T20:20:33.943Z,66.66
2023-01-10T20:23:01.201Z,66.93
2023-01-10T20:25:28.450Z,67.42
2023-01-10T20:27:55.786Z,67.39
2023-01-10T20:30:24.559Z,67.59
2023-01-10T20:32:52.928Z,67.66
2023-01-10T20:35:22.119Z,68.20
2023-01-10T20:37:49.380Z,68.55
2023-01-10T20:40:16.685Z,69.02
2023-01-10T20:42:44.271Z,69.55
2023-01-10T20:45:11.408Z,69.97
2023-01-10T20:47:38.868Z,70.03
2023-01-10T20:50:06.175Z,70.51
2023-01-10T20:52:33.295Z,70.81
2023-01-10T20:55:00.431Z,70.52
2023-01-10T20:57:27.742Z,70.61
2023-01-10T20:59:54.862Z,71.15
2023-01-10T21:02:22.031Z,70.89
2023-01-10T21:04:50.555Z,71.07
2023-01-10T21:07:17.819Z,71.46
2023-01-10T21:09:44.959Z,71.81
2023-01-10T21:12:22.850Z,72.47
2023-01-10T21:14:51.694Z,72.70
2023-01-10T21:17:18.773Z,73.04
2023-01-10T21:19:45.872Z,73.29
2023-01-10T21:22:13.037Z,73.12
2023-01-10T21:24:40.153Z,73.41
2023-01-10T21:27:07.209Z,73.13
2023-01-10T21:29:34.760Z,73.11
2023-01-10T21:32:01.897Z,73.94
2023-01-10T21:34:29.265Z,74.16
2023-01-10T21:36:56.991Z,74.35
2023-01-10T21:39:24.070Z,74.38
2023-01-10T21:42:09.875Z,74.87
2023-01-10T21:44:37.115Z,74.48
2023-01-10T21:47:07.548Z,74.58
2023-01-10T21:49:35.051Z,74.37
2023-01-10T21:52:02.199Z,74.60
2023-01-10T21:54:29.816Z,74.67
2023-01-10T21:56:57.392Z,74.90
2023-01-10T21:59:25.493Z,74.95
2023-01-10T22:01:52.572Z,75.36
2023-01-10T22:04:20.535Z,75.31
2023-01-10T22:06:47.616Z,75.55
2023-01-10T22:09:14.674Z,75.64
2023-01-10T22:11:41.868Z,75.46
2023-01-10T22:14:11.323Z,75.17
2023-01-10T22:16:38.457Z,75.55
2023-01-10T22:19:05.721Z,75.83
2023-01-10T22:21:34.068Z,76.62
2023-01-10T22:24:01.151Z,76.94
2023-01-10T22:26:28.427Z,77.42
2023-01-10T22:28:56.762Z,77.21
2023-01-10T22:31:24.238Z,77.31
2023-01-10T22:33:51.354Z,77.16
2023-01-10T22:36:18.749Z,77.12
2023-01-10T22:38:46.308Z,77.56
2023-01-10T22:41:20.015Z,77.45
2023-01-10T22:43:47.138Z,78.14
2023-01-10T22:46:15.801Z,77.60
2023-01-10T22:48:43.213Z,77.62
2023-01-10T22:51:10.273Z,77.87
2023-01-10T22:53:37.431Z,77.56
2023-01-10T22:56:05.546Z,77.54
2023-01-10T22:58:32.745Z,77.98
2023-01-10T23:01:02.490Z,78.33
2023-01-10T23:03:29.728Z,77.86
2023-01-10T23:05:57.595Z,77.77
2023-01-10T23:08:25.204Z,78.17
2023-01-10T23:10:54.064Z,78.06
2023-01-10T23:13:21.761Z,78.50
2023-01-10T23:15:58.433Z,79.03
2023-01-10T23:18:26.107Z,78.81
2023-01-10T23:20:53.316Z,79.03
2023-01-10T23:23:22.439Z,79.09
2023-01-10T23:26:10.048Z,79.14
2023-01-10T23:28:47.064Z,78.74
2023-01-10T23:31:18.288Z,79.21
2023-01-10T23:33:45.470Z,79.58
2023-01-10T23:36:12.667Z,80.11
2023-01-10T23:38:39.730Z,80.06
2023-01-10T23:41:06.966Z,80.11
2023-01-10T23:43:34.066Z,80.09
2023-01-10T23:46:02.346Z,80.53
2023-01-10T23:48:29.649Z,80.01
2023-01-10T23:50:57.190Z,80.16
2023-01-10T23:53:24.289Z,80.15
2023-01-10T23:55:51.379Z,80.39
2023-01-10T23:58:18.773Z,81.11
